createdAt,value
2019-01-11T00:01:51.068Z,3.30
2019-01-11T00:04:21.938Z,3.92
2019-01-11T00:06:52.741Z,3.23
2019-01-11T00:09:23.519Z,3.33
2019-01-11T00:11:54.282Z,3.13
2019-01-11T00:14:25.047Z,3.50
2019-01-11T00:16:55.898Z,3.40
2019-01-11T00:19:26.663Z,3.83
2019-01-11T00:21:57.423Z,3.93
2019-01-11T00:24:28.191Z,3.40
2019-01-11T00:26:58.951Z,3.60
2019-01-11T00:29:29.712Z,3.30
2019-01-11T00:32:00.466Z,3.90
2019-01-11T00:34:31.243Z,3.37
2019-01-11T00:37:02.119Z,4.00
2019-01-11T00:39:32.868Z,3.10
2019-01-11T00:42:03.643Z,3.30
2019-01-11T00:44:34.408Z,3.47
2019-01-11T00:47:05.158Z,3.20
2019-01-11T00:49:35.950Z,3.50
2019-01-11T00:52:06.807Z,3.87
2019-01-11T00:54:37.607Z,3.10
2019-01-11T00:57:08.672Z,3.33
2019-01-11T00:59:39.448Z,3.58
2019-01-11T01:02:10.245Z,3.10
2019-01-11T01:04:41.012Z,3.20
2019-01-11T01:07:11.861Z,3.10
2019-01-11T01:09:42.640Z,2.73
2019-01-11T01:12:13.399Z,2.80
2019-01-11T01:14:44.270Z,3.13
2019-01-11T01:17:15.026Z,3.57
2019-01-11T01:19:45.903Z,3.00
2019-01-11T01:22:16.659Z,2.70
2019-01-11T01:24:47.420Z,2.97
2019-01-11T01:27:18.189Z,2.97
2019-01-11T01:29:48.967Z,2.50
2019-01-11T01:32:19.755Z,2.80
2019-01-11T01:34:50.530Z,2.70
2019-01-11T01:37:21.303Z,2.93
2019-01-11T01:39:52.085Z,2.90
2019-01-11T01:42:22.839Z,2.67
2019-01-11T01:44:53.609Z,2.90
2019-01-11T01:47:24.636Z,2.80
2019-01-11T01:49:55.403Z,3.22
2019-01-11T01:52:26.154Z,2.87
2019-01-11T01:54:56.916Z,2.50
2019-01-11T01:57:27.674Z,2.67
2019-01-11T01:59:58.442Z,3.50
2019-01-11T02:02:29.205Z,3.10
2019-01-11T02:04:59.957Z,2.53
2019-01-11T02:07:30.748Z,3.13
2019-01-11T02:10:03.226Z,3.47
2019-01-11T02:12:33.979Z,3.30
2019-01-11T02:15:06.249Z,3.43
2019-01-11T02:17:37.079Z,2.33
2019-01-11T02:20:13.538Z,2.80
2019-01-11T02:22:44.597Z,2.58
2019-01-11T02:25:15.407Z,3.20
2019-01-11T02:27:46.167Z,3.10
2019-01-11T02:30:19.049Z,2.73
2019-01-11T02:32:52.801Z,2.70
2019-01-11T02:35:22.886Z,3.27
2019-01-11T02:37:53.908Z,2.63
2019-01-11T02:40:24.692Z,3.40
2019-01-11T02:42:55.448Z,2.57
2019-01-11T02:45:26.253Z,3.10
2019-01-11T02:47:57.354Z,2.87
2019-01-11T02:50:28.192Z,3.42
2019-01-11T02:52:58.973Z,2.40
2019-01-11T02:55:29.796Z,4.07
2019-01-11T02:58:00.567Z,2.93
2019-01-11T03:00:31.742Z,2.83
2019-01-11T03:03:02.960Z,3.58
2019-01-11T03:05:33.719Z,3.35
2019-01-11T03:08:04.589Z,3.17
2019-01-11T03:10:35.356Z,3.00
2019-01-11T03:13:06.250Z,2.53
2019-01-11T03:15:37.108Z,3.10
2019-01-11T03:18:07.880Z,2.43
2019-01-11T03:20:38.634Z,2.80
2019-01-11T03:23:09.435Z,3.30
2019-01-11T03:25:40.199Z,3.00
2019-01-11T03:28:10.965Z,3.00
2019-01-11T03:30:41.717Z,2.87
2019-01-11T03:33:12.522Z,2.70
2019-01-11T03:35:43.391Z,3.23
2019-01-11T03:38:14.288Z,2.43
2019-01-11T03:40:45.042Z,3.43
2019-01-11T03:43:15.821Z,3.00
2019-01-11T03:45:46.602Z,2.80
2019-01-11T03:48:17.465Z,2.87
2019-01-11T03:50:48.334Z,3.40
2019-01-11T03:53:19.340Z,2.90
2019-01-11T03:55:50.124Z,3.27
2019-01-11T03:58:20.910Z,2.23
2019-01-11T04:00:51.674Z,3.50
2019-01-11T04:03:22.468Z,3.20
2019-01-11T04:05:53.226Z,3.60
2019-01-11T04:08:24.003Z,4.57
2019-01-11T04:10:54.756Z,4.93
2019-01-11T04:13:30.526Z,3.50
2019-01-11T04:15:58.181Z,3.35
2019-01-11T04:18:32.510Z,3.40
2019-01-11T04:21:03.298Z,3.55
2019-01-11T04:23:34.080Z,3.77
2019-01-11T04:26:04.883Z,3.70
2019-01-11T04:28:35.602Z,2.93
2019-01-11T04:31:06.374Z,3.60
2019-01-11T04:33:37.148Z,3.17
2019-01-11T04:36:07.914Z,3.00
2019-01-11T04:38:38.777Z,3.70
2019-01-11T04:41:09.596Z,3.40
2019-01-11T04:43:40.376Z,3.00
2019-01-11T04:46:11.125Z,3.23
2019-01-11T04:48:41.893Z,3.03
2019-01-11T04:51:12.645Z,3.10
2019-01-11T04:53:43.408Z,3.70
2019-01-11T04:56:14.164Z,2.70
2019-01-11T04:58:44.945Z,2.83
2019-01-11T05:01:15.809Z,3.10
2019-01-11T05:03:46.576Z,2.77
2019-01-11T05:06:17.332Z,2.55
2019-01-11T05:08:48.094Z,2.67
2019-01-11T05:11:18.851Z,2.20
2019-01-11T05:13:50.927Z,2.00
2019-01-11T05:16:21.683Z,1.80
2019-01-11T05:18:52.492Z,1.90
2019-01-11T05:21:23.257Z,1.70
2019-01-11T05:23:54.259Z,1.50
2019-01-11T05:26:25.017Z,1.92
2019-01-11T05:28:55.790Z,1.50
2019-01-11T05:31:26.552Z,1.90
2019-01-11T05:33:57.306Z,2.00
2019-01-11T05:36:28.103Z,1.80
2019-01-11T05:38:58.858Z,2.60
2019-01-11T05:41:29.630Z,2.40
2019-01-11T05:44:00.385Z,2.87
2019-01-11T05:46:31.151Z,3.40
2019-01-11T05:49:02.202Z,2.40
2019-01-11T05:51:32.979Z,2.12
2019-01-11T05:54:03.747Z,2.60
2019-01-11T05:56:34.519Z,2.87
2019-01-11T05:59:05.572Z,2.57
2019-01-11T06:01:36.362Z,2.50
2019-01-11T06:04:09.087Z,3.10
2019-01-11T06:06:47.604Z,2.77
2019-01-11T06:09:18.359Z,2.83
2019-01-11T06:11:49.134Z,2.70
2019-01-11T06:14:19.889Z,3.07
2019-01-11T06:16:50.662Z,3.67
2019-01-11T06:19:21.411Z,3.20
2019-01-11T06:21:52.187Z,3.70
2019-01-11T06:24:22.956Z,3.10
2019-01-11T06:26:53.719Z,3.33
2019-01-11T06:29:24.488Z,2.60
2019-01-11T06:31:55.364Z,3.43
2019-01-11T06:34:26.716Z,3.20
2019-01-11T06:36:57.492Z,3.25
2019-01-11T06:39:28.244Z,3.10
2019-01-11T06:42:00.920Z,3.00
2019-01-11T06:44:31.682Z,3.10
2019-01-11T06:47:02.746Z,2.80
2019-01-11T06:49:33.507Z,2.92
2019-01-11T06:52:04.378Z,3.43
2019-01-11T06:54:35.133Z,3.13
2019-01-11T06:57:05.906Z,3.00
2019-01-11T06:59:36.664Z,2.70
2019-01-11T07:02:07.431Z,4.00
2019-01-11T07:04:38.289Z,4.07
2019-01-11T07:07:09.059Z,6.47
2019-01-11T07:09:39.822Z,4.40
2019-01-11T07:12:10.673Z,3.50
2019-01-11T07:14:41.444Z,2.50
2019-01-11T07:17:12.248Z,3.50
2019-01-11T07:19:42.996Z,4.40
2019-01-11T07:22:13.766Z,4.40
2019-01-11T07:24:44.831Z,4.73
2019-01-11T07:27:15.612Z,3.72
2019-01-11T07:29:46.371Z,3.87
2019-01-11T07:32:17.151Z,3.73
2019-01-11T07:34:47.910Z,3.87
2019-01-11T07:37:18.692Z,4.40
2019-01-11T07:39:49.448Z,3.50
2019-01-11T07:42:20.221Z,4.70
2019-01-11T07:44:50.993Z,3.77
2019-01-11T07:47:21.739Z,3.40
2019-01-11T07:49:52.504Z,3.63
2019-01-11T07:52:23.270Z,3.13
2019-01-11T07:54:54.024Z,3.40
2019-01-11T07:57:24.791Z,3.67
2019-01-11T07:59:55.558Z,4.27
2019-01-11T08:02:26.314Z,4.00
2019-01-11T08:04:57.095Z,3.47
2019-01-11T08:07:27.861Z,3.80
2019-01-11T08:09:58.623Z,3.63
2019-01-11T08:12:29.383Z,4.10
2019-01-11T08:15:00.189Z,4.10
2019-01-11T08:17:30.953Z,4.53
2019-01-11T08:20:03.520Z,3.77
2019-01-11T08:22:36.209Z,3.50
2019-01-11T08:25:29.052Z,3.10
2019-01-11T08:27:59.818Z,3.80
2019-01-11T08:30:30.584Z,3.17
2019-01-11T08:33:01.347Z,2.50
2019-01-11T08:35:32.132Z,2.93
2019-01-11T08:38:02.881Z,3.43
2019-01-11T08:40:33.638Z,3.40
2019-01-11T08:43:04.412Z,3.47
2019-01-11T08:45:35.201Z,3.37
2019-01-11T08:48:05.980Z,2.90
2019-01-11T08:50:37.843Z,3.27
2019-01-11T08:53:08.626Z,3.10
2019-01-11T08:55:39.414Z,2.80
2019-01-11T08:58:10.218Z,2.73
2019-01-11T09:00:40.988Z,3.10
2019-01-11T09:03:11.741Z,3.50
2019-01-11T09:05:42.506Z,3.77
2019-01-11T09:08:13.268Z,3.00
2019-01-11T09:10:44.059Z,3.57
2019-01-11T09:13:14.963Z,3.40
2019-01-11T09:15:45.739Z,3.10
2019-01-11T09:18:16.801Z,3.03
2019-01-11T09:20:47.570Z,3.65
2019-01-11T09:23:18.634Z,3.47
2019-01-11T09:25:49.409Z,3.90
2019-01-11T09:28:20.175Z,3.13
2019-01-11T09:30:50.952Z,3.53
2019-01-11T09:33:21.818Z,3.50
2019-01-11T09:35:52.609Z,3.27
2019-01-11T09:38:23.386Z,3.73
2019-01-11T09:40:54.152Z,3.67
2019-01-11T09:43:24.929Z,4.17
2019-01-11T09:45:55.793Z,4.00
2019-01-11T09:48:26.561Z,4.00
2019-01-11T09:50:57.335Z,3.40
2019-01-11T09:53:28.095Z,3.83
2019-01-11T09:55:58.858Z,4.03
2019-01-11T09:58:29.627Z,3.80
2019-01-11T10:01:00.426Z,4.97
2019-01-11T10:03:31.430Z,3.93
2019-01-11T10:06:02.204Z,3.75
2019-01-11T10:08:32.963Z,3.03
2019-01-11T10:11:03.734Z,4.10
2019-01-11T10:13:34.496Z,3.07
2019-01-11T10:16:05.564Z,3.50
2019-01-11T10:18:36.341Z,3.00
2019-01-11T10:21:07.109Z,3.13
2019-01-11T10:23:37.871Z,3.47
2019-01-11T10:26:08.672Z,3.30
2019-01-11T10:28:39.427Z,4.40
2019-01-11T10:31:10.293Z,3.43
2019-01-11T10:33:41.041Z,3.83
2019-01-11T10:36:11.951Z,3.60
2019-01-11T10:38:42.695Z,3.43
2019-01-11T10:41:13.470Z,3.53
2019-01-11T10:43:44.227Z,3.97
2019-01-11T10:46:19.803Z,4.03
2019-01-11T10:48:50.570Z,3.85
2019-01-11T10:51:21.363Z,4.10
2019-01-11T10:53:52.147Z,4.17
2019-01-11T10:56:22.916Z,4.00
2019-01-11T10:58:53.662Z,4.37
2019-01-11T11:01:24.438Z,4.57
2019-01-11T11:03:55.190Z,5.20
2019-01-11T11:06:25.963Z,8.87
2019-01-11T11:08:56.742Z,4.70
2019-01-11T11:11:27.505Z,4.50
2019-01-11T11:13:58.269Z,4.70
2019-01-11T11:16:32.867Z,4.67
2019-01-11T11:19:01.738Z,3.85
2019-01-11T11:21:34.826Z,5.00
2019-01-11T11:24:05.215Z,4.45
2019-01-11T11:26:36.005Z,4.83
2019-01-11T11:29:06.759Z,5.57
2019-01-11T11:31:37.543Z,5.67
2019-01-11T11:34:08.292Z,4.80
2019-01-11T11:36:39.095Z,5.90
2019-01-11T11:39:10.258Z,5.40
2019-01-11T11:41:41.064Z,5.50
2019-01-11T11:44:11.818Z,4.80
2019-01-11T11:46:42.567Z,5.10
2019-01-11T11:49:13.388Z,5.70
2019-01-11T11:51:44.170Z,5.37
2019-01-11T11:54:14.927Z,5.90
2019-01-11T11:56:45.709Z,5.50
2019-01-11T11:59:16.463Z,6.17
2019-01-11T12:01:47.250Z,5.73
2019-01-11T12:04:17.999Z,6.40
2019-01-11T12:06:48.745Z,5.90
2019-01-11T12:09:19.508Z,6.37
2019-01-11T12:11:50.341Z,5.80
2019-01-11T12:14:21.163Z,6.90
2019-01-11T12:16:51.954Z,5.53
2019-01-11T12:19:22.702Z,5.73
2019-01-11T12:21:53.470Z,5.87
2019-01-11T12:24:24.224Z,6.20
2019-01-11T12:26:54.983Z,6.23
2019-01-11T12:29:25.741Z,6.60
2019-01-11T12:31:56.506Z,5.47
2019-01-11T12:34:27.267Z,5.57
2019-01-11T12:36:58.043Z,7.77
2019-01-11T12:39:28.816Z,7.23
2019-01-11T12:42:01.989Z,7.30
2019-01-11T12:44:33.222Z,7.08
2019-01-11T12:47:04.021Z,5.90
2019-01-11T12:49:35.437Z,6.03
2019-01-11T12:52:06.164Z,6.78
2019-01-11T12:54:36.933Z,8.70
2019-01-11T12:57:07.688Z,6.33
2019-01-11T12:59:38.497Z,8.00
2019-01-11T13:02:09.352Z,7.73
2019-01-11T13:04:40.237Z,7.27
2019-01-11T13:07:10.988Z,7.63
2019-01-11T13:09:42.007Z,7.60
2019-01-11T13:12:12.782Z,7.95
2019-01-11T13:14:43.553Z,6.60
2019-01-11T13:17:14.312Z,7.53
2019-01-11T13:19:45.076Z,6.60
2019-01-11T13:22:15.855Z,7.97
2019-01-11T13:24:46.623Z,8.17
2019-01-11T13:27:17.384Z,8.10
2019-01-11T13:29:48.163Z,8.37
2019-01-11T13:32:19.026Z,8.87
2019-01-11T13:34:49.874Z,9.50
2019-01-11T13:37:20.635Z,8.87
2019-01-11T13:39:51.404Z,10.07
2019-01-11T13:42:22.222Z,9.60
2019-01-11T13:44:53.023Z,9.90
2019-01-11T13:47:23.784Z,9.00
2019-01-11T13:49:54.554Z,9.20
2019-01-11T13:52:25.329Z,10.20
2019-01-11T13:54:56.099Z,11.93
2019-01-11T13:57:26.876Z,11.50
2019-01-11T13:59:58.536Z,11.10
2019-01-11T14:02:29.296Z,12.50
2019-01-11T14:05:00.221Z,12.57
2019-01-11T14:07:30.958Z,12.60
2019-01-11T14:10:01.731Z,12.37
2019-01-11T14:12:32.500Z,13.00
2019-01-11T14:15:05.986Z,12.87
2019-01-11T14:17:36.757Z,13.40
2019-01-11T14:20:11.117Z,12.83
2019-01-11T14:22:41.885Z,13.25
2019-01-11T14:25:12.758Z,13.40
2019-01-11T14:27:43.608Z,13.60
2019-01-11T14:30:17.082Z,13.50
2019-01-11T14:32:47.934Z,13.15
2019-01-11T14:35:18.717Z,14.07
2019-01-11T14:37:49.495Z,13.20
2019-01-11T14:40:20.498Z,13.70
2019-01-11T14:42:51.266Z,13.22
2019-01-11T14:45:22.036Z,12.97
2019-01-11T14:47:53.010Z,15.60
2019-01-11T14:50:23.813Z,13.83
2019-01-11T14:52:54.584Z,12.77
2019-01-11T14:55:25.363Z,14.87
2019-01-11T14:57:56.123Z,13.27
2019-01-11T15:00:26.892Z,13.00
2019-01-11T15:02:57.653Z,14.23
2019-01-11T15:05:28.490Z,13.10
2019-01-11T15:07:59.254Z,12.47
2019-01-11T15:10:30.019Z,12.30
2019-01-11T15:13:00.787Z,12.57
2019-01-11T15:15:31.547Z,15.20
2019-01-11T15:18:02.530Z,13.40
2019-01-11T15:20:33.293Z,13.83
2019-01-11T15:23:04.051Z,13.47
2019-01-11T15:25:34.817Z,15.83
2019-01-11T15:28:05.591Z,14.77
2019-01-11T15:30:36.441Z,14.60
2019-01-11T15:33:07.211Z,12.30
2019-01-11T15:35:37.979Z,13.93
2019-01-11T15:38:08.957Z,15.40
2019-01-11T15:40:39.723Z,13.78
2019-01-11T15:43:10.497Z,14.37
2019-01-11T15:45:41.254Z,13.57
2019-01-11T15:48:15.147Z,12.50
2019-01-11T15:50:52.027Z,13.93
2019-01-11T15:53:22.796Z,14.15
2019-01-11T15:55:53.559Z,12.23
2019-01-11T15:58:24.320Z,13.60
2019-01-11T16:00:55.083Z,13.83
2019-01-11T16:03:25.846Z,12.90
2019-01-11T16:06:17.267Z,13.33
2019-01-11T16:09:17.674Z,12.55
2019-01-11T16:11:54.861Z,12.20
2019-01-11T16:14:50.232Z,11.97
2019-01-11T16:17:24.399Z,11.73
2019-01-11T16:19:55.149Z,12.55
2019-01-11T16:22:25.924Z,11.87
2019-01-11T16:24:56.679Z,10.80
2019-01-11T16:27:27.747Z,11.73
2019-01-11T16:29:58.516Z,11.90
2019-01-11T16:32:29.305Z,12.23
2019-01-11T16:35:00.127Z,10.10
2019-01-11T16:37:31.034Z,11.57
2019-01-11T16:40:02.906Z,13.30
2019-01-11T16:42:38.690Z,13.10
2019-01-11T16:45:09.888Z,11.57
2019-01-11T16:47:40.652Z,11.18
2019-01-11T16:50:16.657Z,12.60
2019-01-11T16:52:47.443Z,12.68
2019-01-11T16:55:18.202Z,10.93
2019-01-11T16:57:49.032Z,11.17
2019-01-11T17:00:19.886Z,11.03
2019-01-11T17:02:50.670Z,10.90
2019-01-11T17:05:21.419Z,10.07
2019-01-11T17:07:52.174Z,11.80
2019-01-11T17:10:23.266Z,11.80
2019-01-11T17:12:54.031Z,10.23
2019-01-11T17:15:24.793Z,10.63
2019-01-11T17:17:55.541Z,10.90
2019-01-11T17:20:26.339Z,12.43
2019-01-11T17:22:57.117Z,10.67
2019-01-11T17:25:27.884Z,11.17
2019-01-11T17:27:58.641Z,9.60
2019-01-11T17:30:29.398Z,10.17
2019-01-11T17:33:00.154Z,10.10
2019-01-11T17:35:30.920Z,10.80
2019-01-11T17:38:01.689Z,10.80
2019-01-11T17:40:32.463Z,10.93
2019-01-11T17:43:03.248Z,10.50
2019-01-11T17:45:34.007Z,10.93
2019-01-11T17:48:04.762Z,10.80
2019-01-11T17:50:35.692Z,10.67
2019-01-11T17:53:06.493Z,9.10
2019-01-11T17:55:37.318Z,10.40
2019-01-11T17:58:08.017Z,11.17
2019-01-11T18:00:40.722Z,9.90
2019-01-11T18:03:11.419Z,9.83
2019-01-11T18:05:42.190Z,10.33
2019-01-11T18:08:12.956Z,10.17
2019-01-11T18:10:43.740Z,10.23
2019-01-11T18:13:15.803Z,11.00
2019-01-11T18:15:46.679Z,9.48
2019-01-11T18:18:17.427Z,10.30
2019-01-11T18:20:48.186Z,10.47
2019-01-11T18:23:18.969Z,11.70
2019-01-11T18:25:49.720Z,10.17
2019-01-11T18:28:20.470Z,9.40
2019-01-11T18:30:51.235Z,10.63
2019-01-11T18:33:21.994Z,9.50
2019-01-11T18:35:52.756Z,9.60
2019-01-11T18:38:23.537Z,9.90
2019-01-11T18:40:54.309Z,10.07
2019-01-11T18:43:25.098Z,9.80
2019-01-11T18:45:55.858Z,10.77
2019-01-11T18:48:26.612Z,8.87
2019-01-11T18:50:57.422Z,11.00
2019-01-11T18:53:28.482Z,10.50
2019-01-11T18:56:05.184Z,10.88
2019-01-11T18:58:31.920Z,9.43
2019-01-11T19:01:02.693Z,10.50
2019-01-11T19:03:33.449Z,9.10
2019-01-11T19:06:04.215Z,10.60
2019-01-11T19:08:35.338Z,10.57
2019-01-11T19:11:06.100Z,10.55
2019-01-11T19:13:36.856Z,9.43
2019-01-11T19:16:07.622Z,11.07
2019-01-11T19:18:38.386Z,10.37
2019-01-11T19:21:09.147Z,9.60
2019-01-11T19:23:40.252Z,11.00
2019-01-11T19:26:11.023Z,10.23
2019-01-11T19:28:41.783Z,10.10
2019-01-11T19:31:12.571Z,10.00
2019-01-11T19:33:43.327Z,9.70
2019-01-11T19:36:14.088Z,11.00
2019-01-11T19:38:44.855Z,9.10
2019-01-11T19:41:15.627Z,9.30
2019-01-11T19:43:46.395Z,9.30
2019-01-11T19:46:17.162Z,10.00
2019-01-11T19:48:47.930Z,9.13
2019-01-11T19:51:18.691Z,9.00
2019-01-11T19:53:49.448Z,9.00
2019-01-11T19:56:20.212Z,9.83
2019-01-11T19:58:50.976Z,9.00
2019-01-11T20:01:21.955Z,9.67
2019-01-11T20:03:52.809Z,8.43
2019-01-11T20:06:23.752Z,9.03
2019-01-11T20:08:54.514Z,9.97
2019-01-11T20:11:25.671Z,9.50
2019-01-11T20:13:56.403Z,9.73
2019-01-11T20:16:27.198Z,10.03
2019-01-11T20:18:57.944Z,9.50
2019-01-11T20:21:28.804Z,10.83
2019-01-11T20:23:59.586Z,8.70
2019-01-11T20:26:30.440Z,9.37
2019-01-11T20:29:01.206Z,9.70
2019-01-11T20:31:31.965Z,10.60
2019-01-11T20:34:02.825Z,10.80
2019-01-11T20:36:37.425Z,9.60
2019-01-11T20:39:08.377Z,9.90
2019-01-11T20:41:39.142Z,9.83
2019-01-11T20:44:09.909Z,9.70
2019-01-11T20:46:40.683Z,10.37
2019-01-11T20:49:11.466Z,10.57
2019-01-11T20:51:42.228Z,11.10
2019-01-11T20:54:12.995Z,8.77
2019-01-11T20:56:43.750Z,10.60
2019-01-11T20:59:14.515Z,9.33
2019-01-11T21:01:45.332Z,9.40
2019-01-11T21:04:16.093Z,8.70
2019-01-11T21:06:46.941Z,10.33
2019-01-11T21:09:17.711Z,9.63
2019-01-11T21:11:48.479Z,8.90
2019-01-11T21:14:19.290Z,9.50
2019-01-11T21:16:50.042Z,8.93
2019-01-11T21:19:20.821Z,8.87
2019-01-11T21:21:51.571Z,8.63
2019-01-11T21:24:22.341Z,8.00
2019-01-11T21:26:53.097Z,8.33
2019-01-11T21:29:23.864Z,9.30
2019-01-11T21:31:54.622Z,6.77
2019-01-11T21:34:25.382Z,7.47
2019-01-11T21:36:56.160Z,8.00
2019-01-11T21:39:26.923Z,7.90
2019-01-11T21:41:57.703Z,7.80
2019-01-11T21:44:28.475Z,9.13
2019-01-11T21:46:59.227Z,7.10
2019-01-11T21:49:30.000Z,7.30
2019-01-11T21:52:00.863Z,7.57
2019-01-11T21:54:31.631Z,6.70
2019-01-11T21:57:02.490Z,6.63
2019-01-11T21:59:33.252Z,6.90
2019-01-11T22:02:04.384Z,6.60
2019-01-11T22:04:35.149Z,6.60
2019-01-11T22:07:05.902Z,5.70
2019-01-11T22:09:36.685Z,6.50
2019-01-11T22:12:07.435Z,5.70
2019-01-11T22:14:38.239Z,5.57
2019-01-11T22:17:09.000Z,5.20
2019-01-11T22:19:39.767Z,5.47
2019-01-11T22:22:10.533Z,5.33
2019-01-11T22:24:41.306Z,6.00
2019-01-11T22:27:12.074Z,4.90
2019-01-11T22:29:42.872Z,5.47
2019-01-11T22:32:13.639Z,4.70
2019-01-11T22:34:44.405Z,6.67
2019-01-11T22:37:15.192Z,5.20
2019-01-11T22:39:45.960Z,5.40
2019-01-11T22:42:16.725Z,5.13
2019-01-11T22:44:47.477Z,6.00
2019-01-11T22:47:18.233Z,5.63
2019-01-11T22:49:49.002Z,5.47
2019-01-11T22:52:19.828Z,5.80
2019-01-11T22:54:50.537Z,6.07
2019-01-11T22:57:21.284Z,5.50
2019-01-11T22:59:52.051Z,5.90
2019-01-11T23:02:25.317Z,6.07
2019-01-11T23:04:56.084Z,6.20
2019-01-11T23:07:29.445Z,6.23
2019-01-11T23:10:00.295Z,5.87
2019-01-11T23:12:37.881Z,5.73
2019-01-11T23:15:12.053Z,6.08
2019-01-11T23:17:46.417Z,5.55
2019-01-11T23:20:17.185Z,5.20
2019-01-11T23:22:47.935Z,5.70
2019-01-11T23:25:18.727Z,5.20
2019-01-11T23:27:49.480Z,5.53
2019-01-11T23:30:20.257Z,5.63
2019-01-11T23:32:51.009Z,4.67
2019-01-11T23:35:21.792Z,6.20
2019-01-11T23:37:52.559Z,5.30
2019-01-11T23:40:23.351Z,6.17
2019-01-11T23:42:54.123Z,5.13
2019-01-11T23:45:24.896Z,5.27
2019-01-11T23:47:55.848Z,5.93
2019-01-11T23:50:26.750Z,5.15
2019-01-11T23:52:57.504Z,5.27
2019-01-11T23:55:28.259Z,5.53
2019-01-11T23:57:59.142Z,5.53
